Fédération internationale de Ski
Member Section
Print

OFFICIAL RESULTS

Vail / Beaver Creek (USA) 12.02.2015

FIS World Ski Championships - Ladies' Giant Slalom

Race codex : 5214
Valid for FIS Points : YES



Jury
TD FIS WOLF STEFANIE GER
Referee A. SKAARDAL FIS
Assistant Referee M. MAYR FIS
Chief of Race J. ROBERTS USA
Technical Data
Start Altitude 3077 m.
Finish Altitude 2721 m.
Vertical Drop 356 m.
Homologation Number 8590/10/07
Run 1
Course Setter V. GHIRARDI SLO
Number of Gates 49
Turning Gates 47
Start Time 10:15
Run 2
Course Setter C. THOMA SWE
Number of Gates 49
Turning Gates 47
Start Time 14:15
 
Show more info»

Competitors

Display filter form
Rank Bib FIS Code Name Year Nation Run 1 Run 2 Total Time Diff. FIS Points
 1  7  55947 FENNINGER Anna  1989  AUT   1:08.98  1:10.18  2:19.16     0.00
 2  14  205218 REBENSBURG Viktoria  1989  GER   1:10.68  1:09.88  2:20.56  +1.40  9.86
 3  5  505632 LINDELL-VIKARBY Jessica  1984  SWE   1:09.88  1:10.77  2:20.65  +1.49  10.49
 4  8  355050 WEIRATHER Tina  1989  LIE   1:10.33  1:10.38  2:20.71  +1.55  10.92
 5  2  565243 MAZE Tina  1983  SLO   1:10.08  1:10.82  2:20.90  +1.74  12.25
 6  19  55759 KIRCHGASSER Michaela  1985  AUT   1:09.79  1:11.12  2:20.91  +1.75  12.32
 7  6  55838 ZETTEL Kathrin  1986  AUT   1:10.70  1:10.61  2:21.31  +2.15  15.14
 8  3  6535237 SHIFFRIN Mikaela  1995  USA   1:10.70  1:10.93  2:21.63  +2.47  17.39
 9  1  505760 PIETILAE-HOLMNER Maria  1986  SWE   1:10.63  1:11.21  2:21.84  +2.68  18.87
 10  15  506399 HECTOR Sara  1992  SWE   1:10.67  1:11.29  2:21.96  +2.80  19.72
 11  18  425771 LOESETH Nina  1989  NOR   1:10.38  1:11.61  2:21.99  +2.83  19.93
 12  16  505679 HANSDOTTER Frida  1985  SWE   1:10.69  1:11.45  2:22.14  +2.98  20.99
 13  12  196928 WORLEY Tessa  1989  FRA   1:11.38  1:10.89  2:22.27  +3.11  21.90
 14  31  537544 VONN Lindsey  1984  USA   1:11.65  1:10.73  2:22.38  +3.22  22.68
 15  24  197319 BAUD Adeline  1992  FRA   1:11.37  1:11.06  2:22.43  +3.27  23.03
 16  11  296729 FANCHINI Nadia  1986  ITA   1:11.30  1:11.33  2:22.63  +3.47  24.44
 17  30  516280 HOLDENER Wendy  1993  SUI   1:10.97  1:11.73  2:22.70  +3.54  24.93
 18  20  425929 MOWINCKEL Ragnhild  1992  NOR   1:11.52  1:11.29  2:22.81  +3.65  25.70
 19  17  515747 GISIN Dominique  1985  SUI   1:11.57  1:11.31  2:22.88  +3.72  26.20
 20  21  296259 MOELGG Manuela  1983  ITA   1:11.18  1:11.77  2:22.95  +3.79  26.69
 21  28  565331 LAVTAR Katarina  1988  SLO   1:11.39  1:11.60  2:22.99  +3.83  26.97
 22  34  107532 TOMMY Mikaela  1995  CAN   1:11.54  1:11.55  2:23.09  +3.93  27.68
 23  23  105269 GAGNON Marie-Michele  1989  CAN   1:11.54  1:11.63  2:23.17  +4.01  28.24
 24  25  565268 DREV Ana  1985  SLO   1:11.42  1:11.92  2:23.34  +4.18  29.44
 25  43  565360 STUHEC Ilka  1990  SLO   1:11.67  1:11.88  2:23.55  +4.39  30.92
 26  26  537545 MANCUSO Julia  1984  USA   1:11.81  1:11.98  2:23.79  +4.63  32.61
 27  22  106825 PREFONTAINE Marie-Pier  1988  CAN   1:12.63  1:11.51  2:24.14  +4.98  35.07
 28  33  306249 HASEGAWA Emi  1986  JPN   1:12.49  1:11.85  2:24.34  +5.18  36.48
 29  36  107387 CRAWFORD Candace  1994  CAN   1:12.82  1:11.63  2:24.45  +5.29  37.25
 30  49  705423 VLHOVA Petra  1995  SVK   1:12.98  1:12.71  2:25.69  +6.53  45.99
 31  39  185317 SOPPELA Merle  1991  FIN   1:12.79  1:12.93  2:25.72  +6.56  46.20
 32  41  516284 GISIN Michelle  1993  SUI   1:12.69  1:13.40  2:26.09  +6.93  48.80
 33  35  485731 ROMANOVA Anastasia  1993  RUS   1:13.57  1:12.62  2:26.19  +7.03  49.51
 34  38  538284 MCJAMES Megan  1987  USA   1:13.58  1:13.27  2:26.85  +7.69  54.15
 35  32  225525 TILLEY Alexandra  1993  GBR   1:13.61  1:13.45  2:27.06  +7.90  55.63
 36  37  45331 SMALL Greta  1995  AUS   1:13.16  1:14.22  2:27.38  +8.22  57.89
 37  42  385096 POPOVIC Leona  1997  CRO   1:13.72  1:13.85  2:27.57  +8.41  59.23
 38  51  385069 MISAK Iva  1993  CRO   1:13.85  1:13.91  2:27.76  +8.60  60.56
 38  44  435334 GASIENICA-DANIEL Maryna  1994  POL   1:14.05  1:13.71  2:27.76  +8.60  60.56
 40  63  245066 MIKLOS Edit  1988  HUN   1:14.43  1:13.47  2:27.90  +8.74  61.55
 41  67  95050 KIRKOVA Maria  1986  BUL   1:13.90  1:14.31  2:28.21  +9.05  63.73
 42  48  315187 IGNJATOVIC Nevena  1990  SRB   1:13.86  1:14.57  2:28.43  +9.27  65.28
 43  45  225518 GUEST Charlotte  1993  GBR   1:15.27  1:14.47  2:29.74  +10.58  74.51
 44  56  385092 KOMSIC Andrea  1996  CRO   1:15.43  1:14.56  2:29.99  +10.83  76.27
 45  59  45216 CHRYSTAL Lavinia  1989  AUS   1:15.54  1:15.14  2:30.68  +11.52  81.13
 46  50  35156 BANCORA Salome  1993  ARG   1:14.54  1:16.41  2:30.95  +11.79  83.03
 47  52  35079 SIMARI BIRKNER Maria Belen  1982  ARG   1:16.26  1:15.26  2:31.52  +12.36  87.04
 47  46  115115 BARAHONA Noelle  1990  CHI   1:15.77  1:15.75  2:31.52  +12.36  87.04
 49  70  695063 MATSOTSKA Bogdana  1989  UKR   1:15.31  1:16.28  2:31.59  +12.43  87.54
 50  54  536481 SCHLEPER Sarah  1979  MEX   1:17.34  1:14.39  2:31.73  +12.57  88.52
 51  61  35177 SIMARI BIRKNER Angelica  1994  ARG   1:15.68  1:17.14  2:32.82  +13.66  96.20
 52  57  385093 TRSINSKI Sasa  1996  CRO   1:16.11  1:16.77  2:32.88  +13.72  96.62
 53  68  715123 NOVAKOVIC Zana  1985  BIH   1:16.93  1:16.06  2:32.99  +13.83  97.39
 54  62  465098 CAILL Ania Monica  1995  ROU   1:17.54  1:17.40  2:34.94  +15.78  111.13
 55  69  155727 CAPOVA Gabriela  1993  CZE   1:17.73  1:17.62  2:35.35  +16.19  114.01
 56  55  255367 VILHJALMSDOTTIR Helga Maria  1995  ISL   1:17.86  1:17.68  2:35.54  +16.38  115.35
Did not qualify for 2nd run
 57  58  35131 GASTALDI Nicol  1990  ARG   1:18.01    1:18.01    
 58  75  255357 EINARSDOTTIR Freydis Halla  1994  ISL   1:18.14    1:18.14    
 59  64  685018 TSIKLAURI Nino  1993  GEO   1:18.23    1:18.23    
 60  77  65108 NELLES Mathilde  1997  BEL   1:18.35    1:18.35    
 61  60  175043 MOE-LANGE Yina  1993  DEN   1:18.66    1:18.66    
 62  72  695101 TIKUN Tetyana  1994  UKR   1:18.88    1:18.88    
 63  87  555036 ABOLTINA Agnese  1996  LAT   1:18.94    1:18.94    
 64  78  555037 GASUNA Evelina  1997  LAT   1:19.68    1:19.68    
 65  80  197848 ARBEZ Tess  1997  IRL   1:20.75    1:20.75    
 66  84  695108 KNYSH Olha  1995  UKR   1:21.13    1:21.13    
 67  66  175041 LEMGART Charlotte Techen  1993  DEN   1:21.22    1:21.22    
 68  82  255352 ASGEIRSDOTTIR Erla  1994  ISL   1:22.08    1:22.08    
 69  65  245051 BERECZ Anna  1988  HUN   1:22.48    1:22.48    
 70  88  715150 HALILOVIC Amira  1993  BIH   1:22.95    1:22.95    
 71  97  955000 OETTL REYES Ornella  1991  PER   1:22.99    1:22.99    
 72  94  959300 PELLEGRIN Elise  1991  MLT   1:23.17    1:23.17    
 73  91  298936 MEHILLI Suela  1994  ALB   1:24.27    1:24.27    
 74  83  555035 BONDARE Liene  1996  LAT   1:24.35    1:24.35    
 75  90  115215 PFINGSTHORN Magdalena  1998  CHI   1:24.46    1:24.46    
 76  76  125021 XIA Lina  1987  CHN   1:24.50    1:24.50    
 77  100  285018 BUCHLER Gitit  1993  ISR   1:24.73    1:24.73    
 78  86  175050 BERTHELSEN Nuunu Chemnitz  1996  DEN   1:25.64    1:25.64    
 79  79  275029 BELL Florence  1996  IRL   1:27.21    1:27.21    
 80  108  245073 MAROTY Monika  1997  HUN   1:27.58    1:27.58    
 81  99  235292 SAMARINOU Maria  1996  GRE   1:27.67    1:27.67    
 82  104  235277 GKOGKOU Anastasia  1995  GRE   1:27.74    1:27.74    
 83  96  235110 RALLI Sophia  1988  GRE   1:28.01    1:28.01    
 84  92  175048 MOE Lisa Christine Blunck  1996  DEN   1:29.50    1:29.50    
 85  85  125022 QIN Xiyue  1988  CHN   1:30.00    1:30.00    
 86  98  235195 KOKKINI Anastasia  1992  GRE   1:30.24    1:30.24    
 87  111  345095 NASSAR Lea  1995  LIB   1:30.79    1:30.79    
 88  106  775004 PALIUTKINA Olga  1993  KGZ   1:31.10    1:31.10    
 89  110  345106 HADDAD Yasma  1996  LIB   1:34.08    1:34.08    
 90  112  345098 KEIROUZ Celine  1995  LIB   1:37.90    1:37.90    
 91  109  625023 THAKUR Aanchal  1996  IND   1:42.79    1:42.79    
 92  115  625024 DEVI Varsha  1995  IND   2:02.51    2:02.51    
Did not finish 2nd run
   47  185292 ROVE Kristiina  1990  FIN           
   40  155699 PAULATHOVA Katerina  1993  CZE           
   29  196725 BARIOZ Taina  1988  FRA           
   27  299276 BASSINO Marta  1996  ITA           
Did not finish 1st run
   116  315218 MANDIC Nina  1997  SRB           
   103  345107 MOHBAT Natacha  1996  LIB           
   101  245061 CSIMA Reka  1993  HUN           
   95  785007 JANUSKEVICIUTE Ieva  1994  LTU           
   89  115196 VICUNA Josefina  1996  CHI           
   81  285015 KIEK Ronnie  1993  ISR           
   74  715167 MERDANOVIC Sejla  1997  BIH           
   73  85022 HARRISSON Maya  1992  BRA           
   13  297601 BRIGNONE Federica  1990  ITA           
   10  196793 MARMOTTAN Anemone  1988  FRA           
   9  516138 GUT Lara  1991  SUI           
   4  55898 BREM Eva-Maria  1988  AUT           
Disqualified 1st run
   113  215019 BARANOVA Tatjana  1993  UZB           
   105  315203 BULATOVIC Ivana  1994  MNE           
   102  365020 ELVINGER Catherine  1995  LUX           
   93  215007 GRIGOREVA Kseniya  1987  UZB           
   71  555018 GASUNA Lelde  1990  LAT           
Did not start 1st run
   114  135012 WU Meng-Chien  1998  TPE           
   107  315201 JANKOVIC Masa  1994  SRB           
   53  415205 HUDSON Piera  1996  NZL           

picture  Official timekeeper